• Join FlightAware (Why Join?)
  • Login
  • US Flag 
12:59PM EDT


 

Airport Tracker/Info


-or-


 

Live Flight TrackerFlight Track Log ✈ AWE2180 ✈ 10-Apr-2013 ✈ KDCA - KLGA

Flight Track Log - Related Links

Times and Time Zones

All times are in EDT time to prevent confusion due to time zone crossing. See the AWE2180 flight status page for this flight to view local times or setup timezone preferences in your user account.

Time Position Orientation Groundspeed Altitude Reporting Facility
EDT Latitude Longitude Course Direction KTS MPH feet Rate Location/Type
05:15PM 38.7556 -76.9547 74° East 389 448 6,200  Level Washington Center
05:16PM 38.8125 -76.8944 40° Northeast 292 336 8,500 2,280 Climbing Washington Center
05:17PM 38.8614 -76.7967 57° Northeast 302 348 10,800 1,920 Climbing Washington Center
05:18PM 38.9086 -76.6694 64° Northeast 347 399 12,400 2,100 Climbing Washington Center
05:19PM 38.9617 -76.5367 63° Northeast 388 447 15,100 2,580 Climbing Washington Center
05:20PM 38.9863 -76.5032 74° East  Level FlightAware Approximate
05:20PM 38.9836 -76.3875 79° East 415 478 17,600  Level Washington Center
05:21PM 39.0014 -76.2328 82° East 420 483 20,700 1,680 Climbing Washington Center
05:22PM 39.0228 -76.0778 80° East 430 495 21,000 60 Climbing Washington Center
05:24PM 39.0927 -75.9930 43° Northeast  Level Estimated
05:24PM 39.1278 -75.7975 43° Northeast 425 489 21,000  Level Washington Center
05:25PM 39.2031 -75.6772 51° Northeast 430 495 21,000  Level Washington Center
05:26PM 39.2883 -75.5619 46° Northeast 430 495 21,000  Level Washington Center
05:27PM 39.3739 -75.4519 45° Northeast 430 495 21,000  Level Washington Center
05:28PM 39.4569 -75.3389 46° Northeast 430 495 21,000 -240 Level Washington Center
05:29PM 39.5506 -75.2336 41° Northeast 430 495 20,600 -660 Descending Washington Center
05:30PM 39.6439 -75.1469 36° Northeast 430 495 19,700 -1,140 Descending Washington Center
05:31PM 39.7375 -75.0625 35° Northeast 415 478 18,400 -1,620 Descending Washington Center
05:32PM 39.8308 -74.9836 33° Northeast 410 472 16,500 -1,980 Descending Washington Center
05:33PM 39.9136 -74.9044 36° Northeast 399 459 14,500 -2,100 Descending Washington Center
05:34PM 39.9667 -74.8500 38° Northeast 406 467 13,500 -1,980 Descending New York TRACON
05:35PM 40.0333 -74.7333 53° Northeast 393 452 11,700 -1,740 Descending New York TRACON
05:36PM 40.1000 -74.6333 49° Northeast 380 437 10,100 -840 Descending New York TRACON
05:37PM 40.1667 -74.5333 49° Northeast 373 429 10,100  Level New York TRACON
05:38PM 40.2500 -74.4333 42° Northeast 368 423 10,100  Level New York TRACON
05:39PM 40.3167 -74.3500 44° Northeast 337 388 10,100 -600 Level New York TRACON
05:40PM 40.3667 -74.2833 45° Northeast 309 356 9,000 -1,020 Descending New York TRACON
05:41PM 40.4333 -74.2000 44° Northeast 308 354 8,100 -1,140 Descending New York TRACON
05:42PM 40.5000 -74.1333 37° Northeast 306 352 6,700 -1,500 Descending New York TRACON
05:43PM 40.5833 -74.0667 31° Northeast 302 348 5,100 -1,320 Descending New York TRACON
05:44PM 40.6500 -74.0500 11° North 286 329 4,100 -900 Descending New York TRACON
05:45PM 40.7333 -74.0167 17° North 287 330 3,300 -540 Descending New York TRACON
05:46PM 40.8000 -73.9833 21° North 264 304 3,100 -120 Descending New York TRACON
05:47PM 40.8333 -73.9167 57° Northeast 234 269 3,100 -300 Level New York TRACON
05:48PM 40.8667 -73.8500 57° Northeast 207 238 2,600 -600 Descending New York TRACON